KL35 Airport Information

Runway Information
Runway 08 Length 5850 ft width 75 ft
Elevation 6750 ft Threshold 370 ft Heading 90
Runway 26 Length 5850 ft Width 75 ft
Elevation 6751 ft Threshold 600 ft Heading 270
Airport Frequencies
Type AWOS Name AWOS 3 Frequency 135.925 MHZ
Type CNTR Name LOS ANGELE Frequency 126.35 MHZ
Type UNIC Name CTAF/UNICO Frequency 122.725 MHZ
Airport Navaids
Airport Weather Information & NOTAM
ADDS - METARS form results

(1543 UTC 25 June 2018)
 
METAR text: KL35 251535Z AUTO 00000KT 10SM CLR 21/M01 A3023 RMK AO2
Conditions at: KL35 (BIG BEAR CITY , CA, US) observed 1535 UTC 25 June 2018
Temperature: 21.0°C (70°F)
Dewpoint: -1.0°C (30°F) [RH = 23%]
Pressure (altimeter): 30.23 inches Hg (1023.8 mb)
Winds: calm
Visibility: 10 or more miles (16+ km)
Ceiling: at least 12,000 feet AGL
Clouds: sky clear below 12,000 feet AGL
Weather: automated observation with no human augmentation;
there may or may not be significant weather present at this time

METAR text: KL35 251515Z AUTO 00000KT 10SM CLR 18/00 A3023 RMK AO2
Conditions at: KL35 (BIG BEAR CITY , CA, US) observed 1515 UTC 25 June 2018
Temperature: 18.0°C (64°F)
Dewpoint: 0.0°C (32°F) [RH = 30%]
Pressure (altimeter): 30.23 inches Hg (1023.8 mb)
Winds: calm
Visibility: 10 or more miles (16+ km)
Ceiling: at least 12,000 feet AGL
Clouds: sky clear below 12,000 feet AGL
Weather: automated observation with no human augmentation;
there may or may not be significant weather present at this time

METAR text: KL35 251455Z AUTO 00000KT 10SM CLR 16/01 A3023 RMK AO2
Conditions at: KL35 (BIG BEAR CITY , CA, US) observed 1455 UTC 25 June 2018
Temperature: 16.0°C (61°F)
Dewpoint: 1.0°C (34°F) [RH = 36%]
Pressure (altimeter): 30.23 inches Hg (1023.8 mb)
Winds: calm
Visibility: 10 or more miles (16+ km)
Ceiling: at least 12,000 feet AGL
Clouds: sky clear below 12,000 feet AGL
Weather: automated observation with no human augmentation;
there may or may not be significant weather present at this time